createdAt,value
2022-10-01T00:01:04.868Z,91.67
2022-10-01T00:03:31.725Z,91.97
2022-10-01T00:06:20.741Z,92.06
2022-10-01T00:08:51.185Z,92.15
2022-10-01T00:11:22.143Z,91.89
2022-10-01T00:13:54.565Z,91.94
2022-10-01T00:16:29.989Z,92.18
2022-10-01T00:18:58.447Z,92.57
2022-10-01T00:21:32.690Z,92.29
2022-10-01T00:24:06.511Z,92.33
2022-10-01T00:26:37.694Z,92.31
2022-10-01T00:29:14.931Z,92.56
2022-10-01T00:31:49.722Z,92.89
2022-10-01T00:34:17.269Z,93.05
2022-10-01T00:36:49.867Z,92.69
2022-10-01T00:39:20.416Z,92.78
2022-10-01T00:41:51.119Z,92.93
2022-10-01T00:44:36.614Z,92.72
2022-10-01T00:47:27.085Z,93.14
2022-10-01T00:50:12.337Z,92.96
2022-10-01T00:52:41.987Z,92.87
2022-10-01T00:55:13.463Z,92.57
2022-10-01T00:57:43.796Z,93.08
2022-10-01T01:00:14.221Z,93.28
2022-10-01T01:02:42.234Z,93.53
2022-10-01T01:05:13.596Z,93.14
2022-10-01T01:07:45.427Z,93.24
2022-10-01T01:10:24.282Z,93.07
2022-10-01T01:13:12.909Z,93.23
2022-10-01T01:16:12.844Z,93.53
2022-10-01T01:18:50.552Z,93.79
2022-10-01T01:21:29.336Z,94.05
2022-10-01T01:24:37.343Z,93.64
2022-10-01T01:27:31.507Z,93.27
2022-10-01T01:30:08.385Z,93.74
2022-10-01T01:33:28.137Z,93.52
2022-10-01T01:36:05.436Z,93.46
2022-10-01T01:38:52.113Z,93.91
2022-10-01T01:41:22.250Z,94.44
2022-10-01T01:43:53.953Z,93.86
2022-10-01T01:46:21.486Z,94.02
2022-10-01T01:48:51.214Z,93.75
2022-10-01T01:51:51.283Z,94.07
2022-10-01T01:54:20.362Z,93.94
2022-10-01T01:56:50.245Z,94.28
2022-10-01T01:59:19.728Z,94.14
2022-10-01T02:01:53.360Z,94.18
2022-10-01T02:04:33.736Z,94.13
2022-10-01T02:07:47.420Z,94.20
2022-10-01T02:10:25.019Z,94.04
2022-10-01T02:13:29.797Z,94.06
2022-10-01T02:16:27.703Z,94.48
2022-10-01T02:19:27.012Z,94.53
2022-10-01T02:22:28.577Z,94.47
2022-10-01T02:25:26.925Z,94.50
2022-10-01T02:28:01.650Z,94.79
2022-10-01T02:30:40.481Z,94.62
2022-10-01T02:33:12.185Z,94.68
2022-10-01T02:35:51.488Z,94.57
2022-10-01T02:38:19.868Z,94.68
2022-10-01T02:40:55.650Z,94.89
2022-10-01T02:43:54.322Z,94.74
2022-10-01T02:46:28.446Z,94.88
2022-10-01T02:48:59.616Z,95.19
2022-10-01T02:52:15.587Z,94.71
2022-10-01T02:54:59.553Z,95.21
2022-10-01T02:57:42.053Z,94.72
2022-10-01T03:00:15.512Z,94.88
2022-10-01T03:02:52.823Z,95.01
2022-10-01T03:05:39.764Z,95.20
2022-10-01T03:08:19.547Z,94.90
2022-10-01T03:10:58.320Z,95.05
2022-10-01T03:13:28.679Z,95.01
2022-10-01T03:15:59.293Z,95.00
2022-10-01T03:18:25.865Z,95.30
2022-10-01T03:20:55.445Z,95.00
2022-10-01T03:23:22.101Z,94.75
2022-10-01T03:25:48.546Z,95.00
2022-10-01T03:28:16.259Z,95.43
2022-10-01T03:30:42.874Z,95.20
2022-10-01T03:33:24.781Z,95.37
2022-10-01T03:35:58.235Z,94.98
2022-10-01T03:38:24.674Z,95.14
2022-10-01T03:41:03.496Z,95.35
2022-10-01T03:43:31.957Z,95.19
2022-10-01T03:46:14.957Z,95.21
2022-10-01T03:48:43.456Z,95.36
2022-10-01T03:51:09.926Z,95.68
2022-10-01T03:54:09.795Z,95.31
2022-10-01T03:56:40.851Z,95.63
2022-10-01T03:59:10.101Z,95.49
2022-10-01T04:01:38.968Z,95.33
2022-10-01T04:04:09.906Z,95.33
2022-10-01T04:06:38.454Z,95.42
2022-10-01T04:09:19.301Z,95.57
2022-10-01T04:11:54.977Z,95.50
2022-10-01T04:14:27.743Z,95.72
2022-10-01T04:16:55.227Z,95.56
2022-10-01T04:19:21.711Z,95.36
2022-10-01T04:21:51.200Z,95.12
2022-10-01T04:24:20.742Z,95.12
2022-10-01T04:27:14.296Z,95.31
2022-10-01T04:29:49.936Z,95.28
2022-10-01T04:32:21.665Z,95.62
2022-10-01T04:34:54.117Z,95.50
2022-10-01T04:37:28.926Z,95.55
2022-10-01T04:39:57.438Z,95.68
2022-10-01T04:42:35.494Z,95.76
2022-10-01T04:45:19.980Z,95.60
2022-10-01T04:47:59.788Z,95.67
2022-10-01T04:50:42.500Z,95.86
2022-10-01T04:53:20.203Z,95.74
2022-10-01T04:55:46.724Z,96.25
2022-10-01T04:58:19.392Z,95.87
2022-10-01T05:00:50.319Z,95.84
2022-10-01T05:03:36.043Z,95.86
2022-10-01T05:06:11.791Z,95.67
2022-10-01T05:08:57.532Z,95.94
2022-10-01T05:11:44.276Z,95.91
2022-10-01T05:14:22.478Z,95.69
2022-10-01T05:16:57.308Z,95.63
2022-10-01T05:19:28.944Z,96.02
2022-10-01T05:22:00.956Z,95.79
2022-10-01T05:24:29.159Z,95.77
2022-10-01T05:27:19.909Z,95.60
2022-10-01T05:30:01.444Z,95.46
2022-10-01T05:32:28.057Z,95.81
2022-10-01T05:35:05.711Z,95.58
2022-10-01T05:37:46.500Z,95.60
2022-10-01T05:40:15.406Z,95.54
2022-10-01T05:42:47.540Z,95.26
2022-10-01T05:45:14.848Z,95.36
2022-10-01T05:47:48.570Z,95.47
2022-10-01T05:51:06.565Z,95.49
2022-10-01T05:54:05.340Z,95.30
2022-10-01T05:56:32.000Z,95.17
2022-10-01T05:59:00.579Z,95.32
2022-10-01T06:01:39.392Z,95.30
2022-10-01T06:04:10.771Z,95.11
2022-10-01T06:06:56.927Z,95.21
2022-10-01T06:09:23.472Z,95.21
2022-10-01T06:11:50.086Z,95.25
2022-10-01T06:14:24.678Z,94.75
2022-10-01T06:17:01.303Z,95.30
2022-10-01T06:19:29.765Z,95.56
2022-10-01T06:22:00.289Z,95.43
2022-10-01T06:24:36.320Z,95.27
2022-10-01T06:27:05.723Z,95.38
2022-10-01T06:29:49.549Z,95.15
2022-10-01T06:32:52.248Z,95.02
2022-10-01T06:35:21.734Z,94.86
2022-10-01T06:37:54.313Z,94.95
2022-10-01T06:40:44.379Z,95.13
2022-10-01T06:43:11.855Z,95.04
2022-10-01T06:45:44.159Z,94.79
2022-10-01T06:48:24.047Z,95.03
2022-10-01T06:50:53.111Z,94.78
2022-10-01T06:53:22.557Z,94.85
2022-10-01T06:55:49.984Z,95.26
2022-10-01T06:58:43.421Z,95.11
2022-10-01T07:01:29.093Z,95.17
2022-10-01T07:04:03.676Z,95.33
2022-10-01T07:06:33.249Z,95.29
2022-10-01T07:09:15.295Z,95.42
2022-10-01T07:11:42.766Z,95.35
2022-10-01T07:14:21.610Z,95.49
2022-10-01T07:16:59.089Z,95.59
2022-10-01T07:19:25.537Z,95.54
2022-10-01T07:21:58.008Z,96.06
2022-10-01T07:24:24.445Z,96.20
2022-10-01T07:27:17.188Z,96.30
2022-10-01T07:29:43.730Z,96.72
2022-10-01T07:32:16.615Z,96.22
2022-10-01T07:34:44.207Z,96.09
2022-10-01T07:37:17.208Z,96.29
2022-10-01T07:39:52.075Z,96.14
2022-10-01T07:42:20.613Z,96.36
2022-10-01T07:44:59.267Z,96.20
2022-10-01T07:47:26.751Z,96.30
2022-10-01T07:50:22.165Z,95.85
2022-10-01T07:53:02.818Z,96.04
2022-10-01T07:55:48.736Z,96.54
2022-10-01T07:58:23.768Z,96.48
2022-10-01T08:00:58.793Z,96.47
2022-10-01T08:03:36.653Z,96.54
2022-10-01T08:06:05.764Z,96.36
2022-10-01T08:08:46.697Z,96.49
2022-10-01T08:11:17.698Z,96.20
2022-10-01T08:13:48.088Z,96.10
2022-10-01T08:16:16.634Z,96.21
2022-10-01T08:21:22.397Z,96.01
2022-10-01T08:23:49.287Z,95.57
2022-10-01T08:26:51.013Z,95.38
2022-10-01T08:29:17.659Z,96.23
2022-10-01T08:31:54.562Z,95.93
2022-10-01T08:34:25.186Z,96.22
2022-10-01T08:36:52.094Z,95.76
2022-10-01T08:39:18.752Z,95.45
2022-10-01T08:41:58.829Z,96.09
2022-10-01T08:44:43.533Z,95.85
2022-10-01T08:47:34.944Z,96.35
2022-10-01T08:50:25.294Z,95.65
2022-10-01T08:53:01.733Z,96.27
2022-10-01T08:55:36.400Z,96.00
2022-10-01T08:58:25.761Z,95.99
2022-10-01T09:00:55.392Z,95.69
2022-10-01T09:03:34.169Z,95.96
2022-10-01T09:06:26.928Z,95.67
2022-10-01T09:09:23.748Z,95.80
2022-10-01T09:12:12.155Z,95.35
2022-10-01T09:14:54.865Z,95.44
2022-10-01T09:17:51.281Z,95.13
2022-10-01T09:20:26.923Z,95.22
2022-10-01T09:23:17.567Z,94.83
2022-10-01T09:25:52.484Z,94.74
2022-10-01T09:28:49.500Z,94.93
2022-10-01T09:31:39.379Z,94.94
2022-10-01T09:34:43.907Z,94.72
2022-10-01T09:37:49.604Z,94.90
2022-10-01T09:40:39.899Z,94.62
2022-10-01T09:43:10.945Z,94.71
2022-10-01T09:45:38.428Z,95.72
2022-10-01T09:48:23.078Z,95.17
2022-10-01T09:50:58.191Z,94.72
2022-10-01T09:54:03.454Z,94.51
2022-10-01T09:56:35.043Z,93.78
2022-10-01T09:59:07.087Z,92.79
2022-10-01T10:01:43.798Z,92.38
2022-10-01T10:04:11.266Z,92.29
2022-10-01T10:06:39.162Z,92.17
2022-10-01T10:09:16.378Z,91.77
2022-10-01T10:11:42.972Z,91.62
2022-10-01T10:14:19.137Z,91.77
2022-10-01T10:16:48.121Z,92.05
2022-10-01T10:19:28.275Z,92.65
2022-10-01T10:22:13.390Z,92.26
2022-10-01T10:24:42.974Z,92.50
2022-10-01T10:27:59.732Z,93.18
2022-10-01T10:30:31.759Z,93.20
2022-10-01T10:33:08.146Z,93.30
2022-10-01T10:35:37.225Z,93.50
2022-10-01T10:38:16.552Z,93.63
2022-10-01T10:40:45.446Z,94.49
2022-10-01T10:43:35.502Z,93.59
2022-10-01T10:46:05.899Z,92.94
2022-10-01T10:48:45.457Z,92.59
2022-10-01T10:51:30.547Z,92.07
2022-10-01T10:54:04.804Z,91.29
2022-10-01T10:56:35.808Z,91.10
2022-10-01T10:59:36.630Z,91.28
2022-10-01T11:02:18.617Z,90.85
2022-10-01T11:04:55.142Z,90.18
2022-10-01T11:07:24.580Z,88.11
2022-10-01T11:10:23.025Z,88.70
2022-10-01T11:13:06.716Z,88.39
2022-10-01T11:15:46.074Z,88.93
2022-10-01T11:18:47.723Z,89.45
2022-10-01T11:21:31.745Z,89.14
2022-10-01T11:24:16.367Z,88.20
2022-10-01T11:27:16.296Z,89.03
2022-10-01T11:30:09.784Z,88.32
2022-10-01T11:32:46.152Z,88.49
2022-10-01T11:35:47.813Z,88.40
2022-10-01T11:38:36.247Z,88.60
2022-10-01T11:41:14.779Z,87.96
2022-10-01T11:43:54.307Z,88.01
2022-10-01T11:46:35.604Z,87.72
2022-10-01T11:49:08.292Z,88.01
2022-10-01T11:51:41.600Z,87.76
2022-10-01T11:54:14.355Z,86.59
2022-10-01T11:57:09.226Z,86.90
2022-10-01T11:59:50.501Z,87.65
2022-10-01T12:02:27.093Z,87.52
2022-10-01T12:05:01.437Z,87.85
2022-10-01T12:07:49.753Z,85.39
2022-10-01T12:10:29.387Z,85.00
2022-10-01T12:13:15.936Z,85.74
2022-10-01T12:16:11.397Z,85.37
2022-10-01T12:18:48.174Z,85.13
2022-10-01T12:21:23.481Z,86.71
2022-10-01T12:23:59.805Z,86.64
2022-10-01T12:26:48.609Z,87.06
2022-10-01T12:29:39.608Z,87.11
2022-10-01T12:32:24.261Z,85.95
2022-10-01T12:35:26.821Z,86.81
2022-10-01T12:38:30.986Z,86.70
2022-10-01T12:41:12.762Z,85.91
2022-10-01T12:44:06.430Z,85.35
2022-10-01T12:46:58.076Z,83.21
2022-10-01T12:49:36.696Z,83.81
2022-10-01T12:52:19.493Z,83.41
2022-10-01T12:55:08.165Z,82.40
2022-10-01T12:57:44.982Z,83.06
2022-10-01T13:00:23.136Z,82.62
2022-10-01T13:03:28.326Z,82.53
2022-10-01T13:06:07.429Z,82.83
2022-10-01T13:08:58.037Z,84.57
2022-10-01T13:11:45.042Z,82.91
2022-10-01T13:14:18.135Z,81.59
2022-10-01T13:17:06.727Z,83.16
2022-10-01T13:19:53.257Z,82.56
2022-10-01T13:22:34.442Z,82.09
2022-10-01T13:25:43.161Z,82.85
2022-10-01T13:28:15.839Z,81.76
2022-10-01T13:30:55.291Z,81.59
2022-10-01T13:33:28.328Z,82.25
2022-10-01T13:36:01.053Z,81.72
2022-10-01T13:38:30.580Z,80.78
2022-10-01T13:41:06.019Z,81.76
2022-10-01T13:43:34.130Z,82.73
2022-10-01T13:46:10.941Z,81.48
2022-10-01T13:48:45.279Z,81.65
2022-10-01T13:51:14.813Z,81.11
2022-10-01T13:53:41.158Z,81.10
2022-10-01T13:56:09.503Z,82.17
2022-10-01T13:58:39.504Z,81.71
2022-10-01T14:01:29.795Z,81.93
2022-10-01T14:04:16.105Z,82.62
2022-10-01T14:06:57.052Z,83.19
2022-10-01T14:09:29.952Z,82.36
2022-10-01T14:12:18.205Z,79.74
2022-10-01T14:15:19.784Z,81.24
2022-10-01T14:17:55.052Z,80.45
2022-10-01T14:20:27.322Z,81.13
2022-10-01T14:23:10.813Z,80.96
2022-10-01T14:25:54.901Z,80.63
2022-10-01T14:28:35.387Z,80.87
2022-10-01T14:31:12.604Z,81.38
2022-10-01T14:34:03.099Z,80.96
2022-10-01T14:36:42.150Z,79.53
2022-10-01T14:39:15.849Z,79.91
2022-10-01T14:41:42.797Z,80.82
2022-10-01T14:44:23.271Z,80.62
2022-10-01T14:46:52.814Z,80.27
2022-10-01T14:49:21.402Z,81.33
2022-10-01T14:51:55.657Z,81.72
2022-10-01T14:54:23.298Z,82.13
2022-10-01T14:56:50.668Z,83.13
2022-10-01T14:59:35.018Z,83.83
2022-10-01T15:02:16.020Z,84.77
2022-10-01T15:04:50.766Z,83.97
2022-10-01T15:07:19.437Z,84.34
2022-10-01T15:09:48.294Z,83.79
2022-10-01T15:12:16.841Z,84.98
2022-10-01T15:14:44.572Z,84.54
2022-10-01T15:17:23.302Z,85.51
2022-10-01T15:19:52.285Z,86.63
2022-10-01T15:22:27.055Z,86.54
2022-10-01T15:24:57.863Z,87.67
2022-10-01T15:27:25.976Z,87.53
2022-10-01T15:29:56.524Z,88.16
2022-10-01T15:32:24.901Z,87.71
2022-10-01T15:34:55.222Z,87.41
2022-10-01T15:37:35.857Z,87.33
2022-10-01T15:40:07.015Z,88.12
2022-10-01T15:42:34.977Z,88.00
2022-10-01T15:45:07.420Z,88.06
2022-10-01T15:47:40.328Z,87.50
2022-10-01T15:50:10.274Z,88.01
2022-10-01T15:52:52.374Z,88.55
2022-10-01T15:55:40.892Z,88.81
2022-10-01T15:58:15.674Z,88.69
2022-10-01T16:00:58.784Z,88.83
2022-10-01T16:03:31.288Z,89.20
2022-10-01T16:06:01.461Z,89.59
2022-10-01T16:08:35.532Z,90.09
2022-10-01T16:11:16.302Z,90.17
2022-10-01T16:13:44.903Z,90.48
2022-10-01T16:16:15.110Z,90.33
2022-10-01T16:18:42.476Z,90.58
2022-10-01T16:21:11.141Z,90.03
2022-10-01T16:23:47.929Z,90.06
2022-10-01T16:26:29.843Z,90.07
2022-10-01T16:29:00.225Z,90.00
2022-10-01T16:31:26.952Z,90.18
2022-10-01T16:33:53.416Z,90.81
2022-10-01T16:36:22.025Z,90.27
2022-10-01T16:38:48.482Z,90.07
2022-10-01T16:41:20.474Z,90.13
2022-10-01T16:43:47.781Z,90.41
2022-10-01T16:46:14.260Z,89.80
2022-10-01T16:48:54.164Z,90.21
2022-10-01T16:51:24.361Z,90.20
2022-10-01T16:53:56.997Z,90.62
2022-10-01T16:56:43.786Z,90.26
2022-10-01T16:59:10.437Z,90.24
2022-10-01T17:01:37.274Z,90.39
2022-10-01T17:04:04.805Z,90.62
2022-10-01T17:06:31.191Z,90.73
2022-10-01T17:08:57.666Z,90.52
2022-10-01T17:11:26.983Z,90.27
2022-10-01T17:13:53.427Z,90.18
2022-10-01T17:16:24.539Z,89.64
2022-10-01T17:18:51.196Z,89.26
2022-10-01T17:21:17.648Z,89.83
2022-10-01T17:23:44.195Z,89.92
2022-10-01T17:26:10.722Z,89.84
2022-10-01T17:28:37.491Z,89.70
2022-10-01T17:31:08.094Z,89.22
2022-10-01T17:33:34.679Z,89.55
2022-10-01T17:36:06.513Z,89.46
2022-10-01T17:38:33.072Z,90.01
2022-10-01T17:41:01.022Z,89.58
2022-10-01T17:43:27.484Z,89.77
2022-10-01T17:45:59.528Z,89.72
2022-10-01T17:48:27.306Z,89.93
2022-10-01T17:51:05.743Z,90.01
2022-10-01T17:53:39.670Z,90.00
2022-10-01T17:56:10.257Z,89.93
2022-10-01T17:58:38.004Z,90.17
2022-10-01T18:01:14.855Z,89.92
2022-10-01T18:03:41.387Z,90.16
2022-10-01T18:06:09.836Z,90.26
2022-10-01T18:08:54.080Z,90.24
2022-10-01T18:11:22.586Z,89.97
2022-10-01T18:13:50.474Z,90.46
2022-10-01T18:16:19.288Z,90.27
2022-10-01T18:21:34.138Z,89.97
2022-10-01T18:24:04.499Z,90.47
2022-10-01T18:26:32.673Z,90.19
2022-10-01T18:28:59.491Z,90.69
2022-10-01T18:31:29.134Z,90.27
2022-10-01T18:33:58.971Z,89.92
2022-10-01T18:36:44.086Z,90.24
2022-10-01T18:39:21.028Z,90.18
2022-10-01T18:41:49.359Z,90.48
2022-10-01T18:44:20.498Z,90.15
2022-10-01T18:46:50.241Z,90.38
2022-10-01T18:49:38.017Z,90.46
2022-10-01T18:52:26.749Z,90.48
2022-10-01T18:55:46.916Z,90.64
2022-10-01T18:58:42.170Z,90.61
2022-10-01T19:01:26.812Z,90.45
2022-10-01T19:04:00.229Z,90.66
2022-10-01T19:06:29.656Z,90.74
2022-10-01T19:09:30.005Z,90.72
2022-10-01T19:12:10.117Z,90.73
2022-10-01T19:14:58.371Z,90.64
2022-10-01T19:17:52.892Z,90.60
2022-10-01T19:20:46.319Z,90.78
2022-10-01T19:23:34.076Z,90.73
2022-10-01T19:26:13.763Z,90.82
2022-10-01T19:29:04.304Z,90.78
2022-10-01T19:32:18.801Z,90.83
2022-10-01T19:34:57.782Z,91.13
2022-10-01T19:37:45.034Z,91.05
2022-10-01T19:40:40.901Z,91.21
2022-10-01T19:43:33.619Z,91.22
2022-10-01T19:46:26.512Z,91.61
2022-10-01T19:49:12.996Z,91.71
2022-10-01T19:51:43.750Z,91.75
2022-10-01T19:54:16.461Z,91.65
2022-10-01T19:56:46.571Z,91.89
2022-10-01T19:59:19.246Z,91.89
2022-10-01T20:01:58.221Z,92.10
2022-10-01T20:04:38.411Z,91.54
2022-10-01T20:07:14.207Z,91.37
2022-10-01T20:09:46.775Z,91.30
2022-10-01T20:12:36.174Z,91.29
2022-10-01T20:15:21.813Z,91.07
2022-10-01T20:18:13.099Z,91.14
2022-10-01T20:21:18.391Z,90.99
2022-10-01T20:23:56.732Z,91.10
2022-10-01T20:26:39.402Z,90.96
2022-10-01T20:29:21.397Z,90.85
2022-10-01T20:32:23.298Z,90.87
2022-10-01T20:35:28.389Z,90.61
2022-10-01T20:37:59.088Z,91.00
2022-10-01T20:40:55.983Z,90.99
2022-10-01T20:43:33.475Z,90.78
2022-10-01T20:46:19.228Z,90.70
2022-10-01T20:49:23.856Z,91.08
2022-10-01T20:54:58.140Z,90.94
2022-10-01T21:08:46.345Z,90.75
2022-10-01T21:11:41.649Z,91.12
2022-10-01T21:17:02.833Z,91.30
2022-10-01T21:32:52.730Z,91.51
2022-10-01T21:35:43.850Z,91.32
2022-10-01T21:38:51.697Z,91.32
2022-10-01T21:53:05.069Z,91.52
2022-10-01T21:55:58.002Z,91.60
2022-10-01T21:58:44.209Z,91.93
2022-10-01T22:01:41.073Z,92.03
2022-10-01T22:04:44.583Z,91.80
2022-10-01T22:07:46.335Z,91.95
2022-10-01T22:10:34.119Z,92.35
2022-10-01T22:13:09.474Z,92.27
2022-10-01T22:15:44.162Z,92.41
2022-10-01T22:18:32.752Z,92.14
2022-10-01T22:21:07.362Z,92.44
2022-10-01T22:24:12.603Z,92.72
2022-10-01T22:27:13.952Z,92.57
2022-10-01T22:29:50.302Z,92.74
2022-10-01T22:32:24.502Z,92.70
2022-10-01T22:35:42.768Z,93.36
2022-10-01T22:38:23.325Z,93.24
2022-10-01T22:41:17.919Z,93.31
2022-10-01T22:43:46.599Z,93.48
2022-10-01T22:46:35.093Z,93.61
2022-10-01T22:49:38.924Z,93.94
2022-10-01T22:53:00.548Z,94.23
2022-10-01T22:55:44.077Z,94.16
2022-10-01T22:58:50.140Z,93.96
2022-10-01T23:02:09.706Z,93.71
2022-10-01T23:04:55.737Z,93.45
2022-10-01T23:08:04.726Z,93.32
2022-10-01T23:11:09.684Z,93.18
2022-10-01T23:14:21.035Z,93.31
2022-10-01T23:17:06.239Z,93.47
2022-10-01T23:19:36.322Z,93.78
2022-10-01T23:22:38.821Z,93.72
2022-10-01T23:25:54.273Z,93.83
2022-10-01T23:28:53.272Z,93.51
2022-10-01T23:31:35.970Z,93.31
2022-10-01T23:34:46.360Z,93.36
2022-10-01T23:37:58.215Z,93.39
2022-10-01T23:40:34.470Z,93.32
2022-10-01T23:43:19.202Z,93.24
2022-10-01T23:45:53.837Z,92.90
2022-10-01T23:48:59.650Z,93.19
2022-10-01T23:51:37.776Z,93.25
2022-10-01T23:54:17.733Z,92.95
2022-10-01T23:56:51.168Z,93.04
